sensor_id;sensor_type;location;lat;lon;timestamp;P1;durP1;ratioP1;P2;durP2;ratioP2
68250;SDS011;55066;51.560;4.642;2022-12-18T00:00:46;84.23;;;20.40;;
68250;SDS011;55066;51.560;4.642;2022-12-18T00:03:12;90.25;;;20.23;;
68250;SDS011;55066;51.560;4.642;2022-12-18T00:05:49;78.05;;;19.88;;
68250;SDS011;55066;51.560;4.642;2022-12-18T00:08:15;81.80;;;18.20;;
68250;SDS011;55066;51.560;4.642;2022-12-18T00:10:42;79.25;;;19.58;;
68250;SDS011;55066;51.560;4.642;2022-12-18T00:13:08;93.90;;;19.90;;
68250;SDS011;55066;51.560;4.642;2022-12-18T00:15:36;73.57;;;17.98;;
68250;SDS011;55066;51.560;4.642;2022-12-18T00:18:03;74.83;;;16.73;;
68250;SDS011;55066;51.560;4.642;2022-12-18T00:20:29;89.47;;;20.27;;
68250;SDS011;55066;51.560;4.642;2022-12-18T00:22:54;80.47;;;19.97;;
68250;SDS011;55066;51.560;4.642;2022-12-18T00:25:20;93.13;;;20.92;;
68250;SDS011;55066;51.560;4.642;2022-12-18T00:27:46;84.83;;;19.33;;
68250;SDS011;55066;51.560;4.642;2022-12-18T00:30:13;68.00;;;16.65;;
68250;SDS011;55066;51.560;4.642;2022-12-18T00:32:39;77.30;;;18.83;;
68250;SDS011;55066;51.560;4.642;2022-12-18T00:35:05;79.32;;;18.98;;
68250;SDS011;55066;51.560;4.642;2022-12-18T00:37:33;74.55;;;17.92;;
68250;SDS011;55066;51.560;4.642;2022-12-18T00:39:59;83.82;;;19.92;;
68250;SDS011;55066;51.560;4.642;2022-12-18T00:42:24;82.50;;;19.87;;
68250;SDS011;55066;51.560;4.642;2022-12-18T00:45:09;81.70;;;18.88;;
68250;SDS011;55066;51.560;4.642;2022-12-18T00:47:35;76.38;;;18.02;;
68250;SDS011;55066;51.560;4.642;2022-12-18T00:50:00;73.90;;;17.93;;
68250;SDS011;55066;51.560;4.642;2022-12-18T00:52:25;68.83;;;17.10;;
68250;SDS011;55066;51.560;4.642;2022-12-18T00:54:51;75.43;;;18.75;;
68250;SDS011;55066;51.560;4.642;2022-12-18T00:57:17;65.07;;;17.53;;
68250;SDS011;55066;51.560;4.642;2022-12-18T00:59:42;68.77;;;17.77;;
68250;SDS011;55066;51.560;4.642;2022-12-18T01:02:07;69.27;;;17.63;;
68250;SDS011;55066;51.560;4.642;2022-12-18T01:04:33;67.93;;;17.10;;
68250;SDS011;55066;51.560;4.642;2022-12-18T01:06:59;64.38;;;16.98;;
68250;SDS011;55066;51.560;4.642;2022-12-18T01:09:26;71.03;;;17.25;;
68250;SDS011;55066;51.560;4.642;2022-12-18T01:11:51;64.97;;;17.03;;
68250;SDS011;55066;51.560;4.642;2022-12-18T01:14:17;47.10;;;13.47;;
68250;SDS011;55066;51.560;4.642;2022-12-18T01:16:42;56.13;;;14.68;;
68250;SDS011;55066;51.560;4.642;2022-12-18T01:19:08;59.07;;;14.17;;
68250;SDS011;55066;51.560;4.642;2022-12-18T01:21:34;59.88;;;14.15;;
68250;SDS011;55066;51.560;4.642;2022-12-18T01:24:02;54.63;;;14.52;;
68250;SDS011;55066;51.560;4.642;2022-12-18T01:26:28;56.22;;;15.13;;
68250;SDS011;55066;51.560;4.642;2022-12-18T01:28:57;61.03;;;15.90;;
68250;SDS011;55066;51.560;4.642;2022-12-18T01:31:27;65.55;;;17.02;;
68250;SDS011;55066;51.560;4.642;2022-12-18T01:33:55;63.88;;;15.90;;
68250;SDS011;55066;51.560;4.642;2022-12-18T01:36:28;49.03;;;13.35;;
68250;SDS011;55066;51.560;4.642;2022-12-18T01:38:59;59.00;;;16.03;;
68250;SDS011;55066;51.560;4.642;2022-12-18T01:41:27;66.50;;;16.50;;
68250;SDS011;55066;51.560;4.642;2022-12-18T01:47:12;41.05;;;12.68;;
68250;SDS011;55066;51.560;4.642;2022-12-18T01:49:55;61.08;;;14.48;;
68250;SDS011;55066;51.560;4.642;2022-12-18T01:52:22;33.00;;;9.23;;
68250;SDS011;55066;51.560;4.642;2022-12-18T01:54:51;33.60;;;9.63;;
68250;SDS011;55066;51.560;4.642;2022-12-18T01:57:17;47.08;;;13.48;;
68250;SDS011;55066;51.560;4.642;2022-12-18T01:59:44;46.67;;;13.38;;
68250;SDS011;55066;51.560;4.642;2022-12-18T02:02:14;34.03;;;10.10;;
68250;SDS011;55066;51.560;4.642;2022-12-18T02:04:41;54.25;;;14.88;;
68250;SDS011;55066;51.560;4.642;2022-12-18T02:09:46;40.10;;;11.10;;
68250;SDS011;55066;51.560;4.642;2022-12-18T02:17:21;41.38;;;13.55;;
68250;SDS011;55066;51.560;4.642;2022-12-18T02:20:11;40.90;;;10.80;;
68250;SDS011;55066;51.560;4.642;2022-12-18T02:23:03;47.80;;;13.90;;
68250;SDS011;55066;51.560;4.642;2022-12-18T02:28:43;38.83;;;10.52;;
68250;SDS011;55066;51.560;4.642;2022-12-18T02:31:14;49.58;;;14.30;;
68250;SDS011;55066;51.560;4.642;2022-12-18T02:33:43;49.47;;;14.67;;
68250;SDS011;55066;51.560;4.642;2022-12-18T02:36:11;50.63;;;14.95;;
68250;SDS011;55066;51.560;4.642;2022-12-18T02:38:38;54.15;;;12.93;;
68250;SDS011;55066;51.560;4.642;2022-12-18T02:41:10;35.58;;;11.15;;
68250;SDS011;55066;51.560;4.642;2022-12-18T02:43:38;56.63;;;15.05;;
68250;SDS011;55066;51.560;4.642;2022-12-18T02:48:54;53.63;;;14.55;;
68250;SDS011;55066;51.560;4.642;2022-12-18T02:51:37;49.20;;;13.50;;
68250;SDS011;55066;51.560;4.642;2022-12-18T02:54:14;43.97;;;12.43;;
68250;SDS011;55066;51.560;4.642;2022-12-18T02:57:11;55.08;;;13.32;;
68250;SDS011;55066;51.560;4.642;2022-12-18T02:59:41;45.13;;;12.70;;
68250;SDS011;55066;51.560;4.642;2022-12-18T03:05:12;41.65;;;13.32;;
68250;SDS011;55066;51.560;4.642;2022-12-18T03:07:48;49.72;;;13.07;;
68250;SDS011;55066;51.560;4.642;2022-12-18T03:10:26;46.42;;;12.52;;
68250;SDS011;55066;51.560;4.642;2022-12-18T03:12:57;47.83;;;13.33;;
68250;SDS011;55066;51.560;4.642;2022-12-18T03:15:37;54.95;;;13.45;;
68250;SDS011;55066;51.560;4.642;2022-12-18T03:18:30;50.53;;;13.85;;
68250;SDS011;55066;51.560;4.642;2022-12-18T03:21:00;47.72;;;13.00;;
68250;SDS011;55066;51.560;4.642;2022-12-18T03:23:35;50.70;;;12.30;;
68250;SDS011;55066;51.560;4.642;2022-12-18T03:26:09;50.87;;;13.67;;
68250;SDS011;55066;51.560;4.642;2022-12-18T03:28:44;43.97;;;11.35;;
68250;SDS011;55066;51.560;4.642;2022-12-18T03:31:12;50.72;;;14.30;;
68250;SDS011;55066;51.560;4.642;2022-12-18T03:33:53;53.60;;;14.75;;
68250;SDS011;55066;51.560;4.642;2022-12-18T03:36:24;48.70;;;13.07;;
68250;SDS011;55066;51.560;4.642;2022-12-18T03:38:50;50.23;;;13.63;;
68250;SDS011;55066;51.560;4.642;2022-12-18T03:44:20;49.78;;;13.10;;
68250;SDS011;55066;51.560;4.642;2022-12-18T03:49:31;40.42;;;12.70;;
68250;SDS011;55066;51.560;4.642;2022-12-18T03:54:33;43.42;;;12.18;;
68250;SDS011;55066;51.560;4.642;2022-12-18T03:57:13;41.03;;;11.57;;
68250;SDS011;55066;51.560;4.642;2022-12-18T03:59:57;48.90;;;12.52;;
68250;SDS011;55066;51.560;4.642;2022-12-18T04:02:39;43.10;;;11.45;;
68250;SDS011;55066;51.560;4.642;2022-12-18T04:05:11;47.87;;;13.00;;
68250;SDS011;55066;51.560;4.642;2022-12-18T04:07:40;48.33;;;13.00;;
68250;SDS011;55066;51.560;4.642;2022-12-18T04:10:08;48.92;;;12.48;;
68250;SDS011;55066;51.560;4.642;2022-12-18T04:12:36;45.40;;;12.60;;
68250;SDS011;55066;51.560;4.642;2022-12-18T04:15:02;45.70;;;12.25;;
68250;SDS011;55066;51.560;4.642;2022-12-18T04:17:28;46.17;;;12.33;;
68250;SDS011;55066;51.560;4.642;2022-12-18T04:19:53;46.00;;;11.65;;
68250;SDS011;55066;51.560;4.642;2022-12-18T04:22:19;39.50;;;10.97;;
68250;SDS011;55066;51.560;4.642;2022-12-18T04:24:47;42.95;;;11.80;;
68250;SDS011;55066;51.560;4.642;2022-12-18T04:27:21;45.77;;;11.67;;
68250;SDS011;55066;51.560;4.642;2022-12-18T04:29:48;43.22;;;11.90;;
68250;SDS011;55066;51.560;4.642;2022-12-18T04:32:16;45.95;;;11.90;;
68250;SDS011;55066;51.560;4.642;2022-12-18T04:34:43;44.80;;;12.60;;
68250;SDS011;55066;51.560;4.642;2022-12-18T04:37:08;45.90;;;12.20;;
68250;SDS011;55066;51.560;4.642;2022-12-18T04:39:34;38.63;;;11.20;;
68250;SDS011;55066;51.560;4.642;2022-12-18T04:42:06;44.53;;;11.70;;
68250;SDS011;55066;51.560;4.642;2022-12-18T04:44:32;39.22;;;11.27;;
68250;SDS011;55066;51.560;4.642;2022-12-18T04:46:58;39.17;;;11.20;;
68250;SDS011;55066;51.560;4.642;2022-12-18T04:49:23;44.75;;;11.70;;
68250;SDS011;55066;51.560;4.642;2022-12-18T04:51:49;43.27;;;11.90;;
68250;SDS011;55066;51.560;4.642;2022-12-18T04:54:14;37.10;;;11.07;;
68250;SDS011;55066;51.560;4.642;2022-12-18T04:56:41;42.08;;;10.85;;
68250;SDS011;55066;51.560;4.642;2022-12-18T04:59:06;39.43;;;11.00;;
68250;SDS011;55066;51.560;4.642;2022-12-18T05:01:32;42.38;;;11.95;;
68250;SDS011;55066;51.560;4.642;2022-12-18T05:03:57;43.28;;;12.13;;
68250;SDS011;55066;51.560;4.642;2022-12-18T05:06:22;43.97;;;12.03;;
68250;SDS011;55066;51.560;4.642;2022-12-18T05:08:48;42.90;;;10.70;;
68250;SDS011;55066;51.560;4.642;2022-12-18T05:11:13;44.73;;;11.13;;
68250;SDS011;55066;51.560;4.642;2022-12-18T05:13:43;45.88;;;12.63;;
68250;SDS011;55066;51.560;4.642;2022-12-18T05:16:10;37.50;;;10.80;;
68250;SDS011;55066;51.560;4.642;2022-12-18T05:18:36;33.97;;;11.23;;
68250;SDS011;55066;51.560;4.642;2022-12-18T05:21:02;36.63;;;10.75;;
68250;SDS011;55066;51.560;4.642;2022-12-18T05:23:28;36.60;;;9.00;;
68250;SDS011;55066;51.560;4.642;2022-12-18T05:25:55;37.13;;;10.98;;
68250;SDS011;55066;51.560;4.642;2022-12-18T05:28:23;39.23;;;11.40;;
68250;SDS011;55066;51.560;4.642;2022-12-18T05:30:50;41.10;;;9.80;;
68250;SDS011;55066;51.560;4.642;2022-12-18T05:33:17;40.42;;;10.07;;
68250;SDS011;55066;51.560;4.642;2022-12-18T05:35:43;36.95;;;10.10;;
68250;SDS011;55066;51.560;4.642;2022-12-18T05:38:09;34.00;;;8.83;;
68250;SDS011;55066;51.560;4.642;2022-12-18T05:40:35;30.25;;;8.57;;
68250;SDS011;55066;51.560;4.642;2022-12-18T05:43:01;39.28;;;11.32;;
68250;SDS011;55066;51.560;4.642;2022-12-18T05:45:27;37.23;;;10.63;;
68250;SDS011;55066;51.560;4.642;2022-12-18T05:47:52;29.50;;;9.82;;
68250;SDS011;55066;51.560;4.642;2022-12-18T05:50:18;40.45;;;11.70;;
68250;SDS011;55066;51.560;4.642;2022-12-18T05:52:43;37.33;;;10.83;;
68250;SDS011;55066;51.560;4.642;2022-12-18T05:55:08;37.53;;;10.43;;
68250;SDS011;55066;51.560;4.642;2022-12-18T05:57:34;32.50;;;9.47;;
68250;SDS011;55066;51.560;4.642;2022-12-18T05:59:59;36.83;;;10.80;;
68250;SDS011;55066;51.560;4.642;2022-12-18T06:02:25;33.00;;;9.77;;
68250;SDS011;55066;51.560;4.642;2022-12-18T06:04:50;37.10;;;9.75;;
68250;SDS011;55066;51.560;4.642;2022-12-18T06:07:15;32.13;;;10.33;;
68250;SDS011;55066;51.560;4.642;2022-12-18T06:09:41;29.47;;;8.93;;
68250;SDS011;55066;51.560;4.642;2022-12-18T06:12:06;34.47;;;10.67;;
68250;SDS011;55066;51.560;4.642;2022-12-18T06:14:32;37.23;;;11.70;;
68250;SDS011;55066;51.560;4.642;2022-12-18T06:16:57;34.25;;;10.95;;
68250;SDS011;55066;51.560;4.642;2022-12-18T06:19:22;38.92;;;10.70;;
68250;SDS011;55066;51.560;4.642;2022-12-18T06:21:48;29.77;;;10.10;;
68250;SDS011;55066;51.560;4.642;2022-12-18T06:24:14;30.47;;;9.50;;
68250;SDS011;55066;51.560;4.642;2022-12-18T06:26:39;31.92;;;9.82;;
68250;SDS011;55066;51.560;4.642;2022-12-18T06:29:05;36.13;;;10.63;;
68250;SDS011;55066;51.560;4.642;2022-12-18T06:31:31;27.95;;;8.52;;
68250;SDS011;55066;51.560;4.642;2022-12-18T06:33:56;34.07;;;11.17;;
68250;SDS011;55066;51.560;4.642;2022-12-18T06:36:21;30.00;;;9.57;;
68250;SDS011;55066;51.560;4.642;2022-12-18T06:38:47;34.03;;;10.00;;
68250;SDS011;55066;51.560;4.642;2022-12-18T06:41:14;32.13;;;9.87;;
68250;SDS011;55066;51.560;4.642;2022-12-18T06:43:41;27.83;;;8.68;;
68250;SDS011;55066;51.560;4.642;2022-12-18T06:46:08;32.28;;;10.13;;
68250;SDS011;55066;51.560;4.642;2022-12-18T06:48:33;26.67;;;9.10;;
68250;SDS011;55066;51.560;4.642;2022-12-18T06:50:59;31.70;;;9.97;;
68250;SDS011;55066;51.560;4.642;2022-12-18T06:53:25;36.08;;;10.60;;
68250;SDS011;55066;51.560;4.642;2022-12-18T06:55:51;35.20;;;10.73;;
68250;SDS011;55066;51.560;4.642;2022-12-18T06:58:17;29.45;;;9.85;;
68250;SDS011;55066;51.560;4.642;2022-12-18T07:00:42;31.93;;;9.57;;
68250;SDS011;55066;51.560;4.642;2022-12-18T07:03:08;26.17;;;7.97;;
68250;SDS011;55066;51.560;4.642;2022-12-18T07:05:34;34.22;;;10.70;;
68250;SDS011;55066;51.560;4.642;2022-12-18T07:07:59;18.77;;;6.20;;
68250;SDS011;55066;51.560;4.642;2022-12-18T07:10:25;33.97;;;8.53;;
68250;SDS011;55066;51.560;4.642;2022-12-18T07:12:50;28.50;;;8.75;;
68250;SDS011;55066;51.560;4.642;2022-12-18T07:15:16;28.97;;;9.13;;
68250;SDS011;55066;51.560;4.642;2022-12-18T07:17:41;29.40;;;9.65;;
68250;SDS011;55066;51.560;4.642;2022-12-18T07:20:07;30.52;;;9.70;;
68250;SDS011;55066;51.560;4.642;2022-12-18T07:22:33;32.50;;;10.03;;
68250;SDS011;55066;51.560;4.642;2022-12-18T07:24:58;32.42;;;8.80;;
68250;SDS011;55066;51.560;4.642;2022-12-18T07:27:23;31.83;;;10.57;;
68250;SDS011;55066;51.560;4.642;2022-12-18T07:29:49;32.47;;;10.67;;
68250;SDS011;55066;51.560;4.642;2022-12-18T07:32:14;29.20;;;8.97;;
68250;SDS011;55066;51.560;4.642;2022-12-18T07:34:40;32.87;;;9.97;;
68250;SDS011;55066;51.560;4.642;2022-12-18T07:37:05;36.77;;;9.70;;
68250;SDS011;55066;51.560;4.642;2022-12-18T07:39:31;28.20;;;9.20;;
68250;SDS011;55066;51.560;4.642;2022-12-18T07:41:56;25.58;;;7.53;;
68250;SDS011;55066;51.560;4.642;2022-12-18T07:44:40;17.05;;;6.57;;
68250;SDS011;55066;51.560;4.642;2022-12-18T07:47:06;21.50;;;7.20;;
68250;SDS011;55066;51.560;4.642;2022-12-18T07:49:31;17.63;;;6.63;;
68250;SDS011;55066;51.560;4.642;2022-12-18T07:51:57;27.17;;;8.67;;
68250;SDS011;55066;51.560;4.642;2022-12-18T07:54:23;25.15;;;8.27;;
68250;SDS011;55066;51.560;4.642;2022-12-18T07:56:49;19.90;;;7.50;;
68250;SDS011;55066;51.560;4.642;2022-12-18T07:59:15;14.77;;;5.47;;
68250;SDS011;55066;51.560;4.642;2022-12-18T08:01:40;30.60;;;9.57;;
68250;SDS011;55066;51.560;4.642;2022-12-18T08:04:06;19.57;;;6.73;;
68250;SDS011;55066;51.560;4.642;2022-12-18T08:06:31;28.00;;;8.50;;
68250;SDS011;55066;51.560;4.642;2022-12-18T08:08:57;27.67;;;8.07;;
68250;SDS011;55066;51.560;4.642;2022-12-18T08:11:23;31.97;;;9.90;;
68250;SDS011;55066;51.560;4.642;2022-12-18T08:13:49;9.80;;;4.38;;
68250;SDS011;55066;51.560;4.642;2022-12-18T08:16:15;24.55;;;8.48;;
68250;SDS011;55066;51.560;4.642;2022-12-18T08:18:41;33.67;;;8.95;;
68250;SDS011;55066;51.560;4.642;2022-12-18T08:21:07;26.30;;;9.17;;
68250;SDS011;55066;51.560;4.642;2022-12-18T08:23:34;23.50;;;8.30;;
68250;SDS011;55066;51.560;4.642;2022-12-18T08:26:00;27.90;;;9.20;;
68250;SDS011;55066;51.560;4.642;2022-12-18T08:28:26;30.17;;;9.40;;
68250;SDS011;55066;51.560;4.642;2022-12-18T08:30:51;15.47;;;4.70;;
68250;SDS011;55066;51.560;4.642;2022-12-18T08:33:17;28.58;;;9.07;;
68250;SDS011;55066;51.560;4.642;2022-12-18T08:35:42;28.13;;;9.40;;
68250;SDS011;55066;51.560;4.642;2022-12-18T08:38:08;26.87;;;8.97;;
68250;SDS011;55066;51.560;4.642;2022-12-18T08:40:33;27.67;;;8.73;;
68250;SDS011;55066;51.560;4.642;2022-12-18T08:42:59;25.20;;;9.43;;
68250;SDS011;55066;51.560;4.642;2022-12-18T08:45:43;32.47;;;10.23;;
68250;SDS011;55066;51.560;4.642;2022-12-18T08:48:08;27.57;;;9.20;;
68250;SDS011;55066;51.560;4.642;2022-12-18T08:50:34;12.93;;;4.80;;
68250;SDS011;55066;51.560;4.642;2022-12-18T08:53:00;22.90;;;8.07;;
68250;SDS011;55066;51.560;4.642;2022-12-18T08:55:26;18.25;;;5.97;;
68250;SDS011;55066;51.560;4.642;2022-12-18T08:57:51;25.27;;;8.43;;
68250;SDS011;55066;51.560;4.642;2022-12-18T09:00:16;17.95;;;6.45;;
68250;SDS011;55066;51.560;4.642;2022-12-18T09:02:42;25.03;;;8.70;;
68250;SDS011;55066;51.560;4.642;2022-12-18T09:05:07;23.20;;;7.17;;
68250;SDS011;55066;51.560;4.642;2022-12-18T09:07:33;29.60;;;10.17;;
68250;SDS011;55066;51.560;4.642;2022-12-18T09:09:58;31.90;;;10.80;;
68250;SDS011;55066;51.560;4.642;2022-12-18T09:12:24;31.67;;;11.17;;
68250;SDS011;55066;51.560;4.642;2022-12-18T09:14:49;31.17;;;10.37;;
68250;SDS011;55066;51.560;4.642;2022-12-18T09:17:15;31.53;;;9.57;;
68250;SDS011;55066;51.560;4.642;2022-12-18T09:19:40;27.23;;;9.25;;
68250;SDS011;55066;51.560;4.642;2022-12-18T09:22:06;29.65;;;10.18;;
68250;SDS011;55066;51.560;4.642;2022-12-18T09:24:31;36.13;;;11.23;;
68250;SDS011;55066;51.560;4.642;2022-12-18T09:26:56;28.73;;;10.30;;
68250;SDS011;55066;51.560;4.642;2022-12-18T09:29:22;27.23;;;8.13;;
68250;SDS011;55066;51.560;4.642;2022-12-18T09:31:47;28.27;;;10.40;;
68250;SDS011;55066;51.560;4.642;2022-12-18T09:34:14;28.02;;;9.15;;
68250;SDS011;55066;51.560;4.642;2022-12-18T09:36:40;37.78;;;13.05;;
68250;SDS011;55066;51.560;4.642;2022-12-18T09:39:05;34.63;;;11.32;;
68250;SDS011;55066;51.560;4.642;2022-12-18T09:46:42;31.97;;;11.33;;
68250;SDS011;55066;51.560;4.642;2022-12-18T09:49:12;35.60;;;11.88;;
68250;SDS011;55066;51.560;4.642;2022-12-18T09:51:43;36.83;;;12.00;;
68250;SDS011;55066;51.560;4.642;2022-12-18T09:54:22;39.67;;;11.85;;
68250;SDS011;55066;51.560;4.642;2022-12-18T09:56:55;32.75;;;11.23;;
68250;SDS011;55066;51.560;4.642;2022-12-18T09:59:24;32.13;;;11.57;;
68250;SDS011;55066;51.560;4.642;2022-12-18T10:01:55;36.27;;;12.13;;
68250;SDS011;55066;51.560;4.642;2022-12-18T10:04:20;35.95;;;12.27;;
68250;SDS011;55066;51.560;4.642;2022-12-18T10:14:28;36.22;;;11.82;;
68250;SDS011;55066;51.560;4.642;2022-12-18T10:20:02;35.03;;;11.80;;
68250;SDS011;55066;51.560;4.642;2022-12-18T10:22:38;26.70;;;9.27;;
68250;SDS011;55066;51.560;4.642;2022-12-18T10:25:20;34.28;;;11.75;;
68250;SDS011;55066;51.560;4.642;2022-12-18T10:27:51;29.48;;;10.48;;
68250;SDS011;55066;51.560;4.642;2022-12-18T10:30:21;35.57;;;12.87;;
68250;SDS011;55066;51.560;4.642;2022-12-18T10:32:48;26.00;;;9.35;;
68250;SDS011;55066;51.560;4.642;2022-12-18T10:35:32;19.88;;;6.93;;
68250;SDS011;55066;51.560;4.642;2022-12-18T10:40:31;31.43;;;11.30;;
68250;SDS011;55066;51.560;4.642;2022-12-18T10:43:03;36.83;;;10.18;;
68250;SDS011;55066;51.560;4.642;2022-12-18T10:45:31;28.98;;;10.82;;
68250;SDS011;55066;51.560;4.642;2022-12-18T10:47:56;22.35;;;8.65;;
68250;SDS011;55066;51.560;4.642;2022-12-18T10:50:28;27.35;;;9.93;;
68250;SDS011;55066;51.560;4.642;2022-12-18T10:52:57;34.57;;;11.90;;
68250;SDS011;55066;51.560;4.642;2022-12-18T10:55:26;18.67;;;6.57;;
68250;SDS011;55066;51.560;4.642;2022-12-18T10:57:56;26.20;;;9.35;;
68250;SDS011;55066;51.560;4.642;2022-12-18T11:03:58;34.10;;;11.65;;
68250;SDS011;55066;51.560;4.642;2022-12-18T11:06:26;25.70;;;7.70;;
68250;SDS011;55066;51.560;4.642;2022-12-18T11:09:05;36.45;;;12.45;;
68250;SDS011;55066;51.560;4.642;2022-12-18T11:12:18;37.08;;;13.73;;
68250;SDS011;55066;51.560;4.642;2022-12-18T11:14:56;37.58;;;13.25;;
68250;SDS011;55066;51.560;4.642;2022-12-18T11:17:25;28.02;;;8.98;;
68250;SDS011;55066;51.560;4.642;2022-12-18T11:20:38;32.27;;;11.00;;
68250;SDS011;55066;51.560;4.642;2022-12-18T11:22:56;37.67;;;12.15;;
68250;SDS011;55066;51.560;4.642;2022-12-18T11:25:27;33.10;;;12.02;;
68250;SDS011;55066;51.560;4.642;2022-12-18T11:28:01;35.88;;;12.45;;
68250;SDS011;55066;51.560;4.642;2022-12-18T11:30:35;36.33;;;13.47;;
68250;SDS011;55066;51.560;4.642;2022-12-18T11:33:03;37.10;;;13.45;;
68250;SDS011;55066;51.560;4.642;2022-12-18T11:38:10;37.80;;;13.55;;
68250;SDS011;55066;51.560;4.642;2022-12-18T11:44:15;32.17;;;12.03;;
68250;SDS011;55066;51.560;4.642;2022-12-18T11:47:00;38.67;;;13.50;;
68250;SDS011;55066;51.560;4.642;2022-12-18T11:49:32;40.13;;;13.90;;
68250;SDS011;55066;51.560;4.642;2022-12-18T11:54:41;35.95;;;13.65;;
68250;SDS011;55066;51.560;4.642;2022-12-18T11:57:41;40.33;;;13.97;;
68250;SDS011;55066;51.560;4.642;2022-12-18T12:00:18;32.00;;;10.25;;
68250;SDS011;55066;51.560;4.642;2022-12-18T12:10:39;36.28;;;13.40;;
68250;SDS011;55066;51.560;4.642;2022-12-18T12:13:17;35.28;;;12.88;;
68250;SDS011;55066;51.560;4.642;2022-12-18T12:16:09;33.97;;;11.90;;
68250;SDS011;55066;51.560;4.642;2022-12-18T12:18:40;37.67;;;13.63;;
68250;SDS011;55066;51.560;4.642;2022-12-18T12:24:02;42.90;;;14.18;;
68250;SDS011;55066;51.560;4.642;2022-12-18T12:27:02;36.40;;;13.18;;
68250;SDS011;55066;51.560;4.642;2022-12-18T12:30:03;25.87;;;9.87;;
68250;SDS011;55066;51.560;4.642;2022-12-18T12:32:48;30.05;;;11.35;;
68250;SDS011;55066;51.560;4.642;2022-12-18T12:40:43;31.67;;;9.32;;
68250;SDS011;55066;51.560;4.642;2022-12-18T12:46:06;28.13;;;9.57;;
68250;SDS011;55066;51.560;4.642;2022-12-18T12:51:15;34.63;;;12.65;;
68250;SDS011;55066;51.560;4.642;2022-12-18T12:53:43;36.08;;;12.57;;
68250;SDS011;55066;51.560;4.642;2022-12-18T12:56:10;34.30;;;9.80;;
68250;SDS011;55066;51.560;4.642;2022-12-18T12:58:47;34.28;;;11.02;;
68250;SDS011;55066;51.560;4.642;2022-12-18T13:01:25;31.85;;;11.60;;
68250;SDS011;55066;51.560;4.642;2022-12-18T13:06:58;28.42;;;10.60;;
68250;SDS011;55066;51.560;4.642;2022-12-18T13:09:30;28.80;;;11.90;;
68250;SDS011;55066;51.560;4.642;2022-12-18T13:12:01;30.40;;;10.57;;
68250;SDS011;55066;51.560;4.642;2022-12-18T13:14:47;33.90;;;12.48;;
68250;SDS011;55066;51.560;4.642;2022-12-18T13:19:44;30.40;;;11.15;;
68250;SDS011;55066;51.560;4.642;2022-12-18T13:22:22;33.67;;;12.33;;
68250;SDS011;55066;51.560;4.642;2022-12-18T13:24:50;36.92;;;12.35;;
68250;SDS011;55066;51.560;4.642;2022-12-18T13:30:40;30.25;;;10.70;;
68250;SDS011;55066;51.560;4.642;2022-12-18T13:45:45;26.40;;;8.83;;
68250;SDS011;55066;51.560;4.642;2022-12-18T13:48:31;23.90;;;9.48;;
68250;SDS011;55066;51.560;4.642;2022-12-18T13:51:02;23.50;;;7.80;;
68250;SDS011;55066;51.560;4.642;2022-12-18T13:53:34;30.63;;;9.90;;
68250;SDS011;55066;51.560;4.642;2022-12-18T13:56:03;28.90;;;8.45;;
68250;SDS011;55066;51.560;4.642;2022-12-18T13:58:30;29.70;;;10.75;;
68250;SDS011;55066;51.560;4.642;2022-12-18T14:00:56;13.47;;;5.07;;
68250;SDS011;55066;51.560;4.642;2022-12-18T14:03:25;23.35;;;8.05;;
68250;SDS011;55066;51.560;4.642;2022-12-18T14:05:53;29.17;;;9.95;;
68250;SDS011;55066;51.560;4.642;2022-12-18T14:08:38;13.75;;;5.78;;
68250;SDS011;55066;51.560;4.642;2022-12-18T14:11:05;23.03;;;8.43;;
68250;SDS011;55066;51.560;4.642;2022-12-18T14:13:42;29.15;;;10.15;;
68250;SDS011;55066;51.560;4.642;2022-12-18T14:16:11;21.70;;;7.50;;
68250;SDS011;55066;51.560;4.642;2022-12-18T14:18:50;16.73;;;6.47;;
68250;SDS011;55066;51.560;4.642;2022-12-18T14:21:26;28.42;;;9.82;;
68250;SDS011;55066;51.560;4.642;2022-12-18T14:24:12;26.88;;;9.25;;
68250;SDS011;55066;51.560;4.642;2022-12-18T14:26:45;28.13;;;10.23;;
68250;SDS011;55066;51.560;4.642;2022-12-18T14:29:28;30.03;;;11.20;;
68250;SDS011;55066;51.560;4.642;2022-12-18T14:34:42;30.48;;;11.82;;
68250;SDS011;55066;51.560;4.642;2022-12-18T14:37:12;32.72;;;10.85;;
68250;SDS011;55066;51.560;4.642;2022-12-18T14:39:39;31.58;;;10.57;;
68250;SDS011;55066;51.560;4.642;2022-12-18T14:42:05;17.30;;;6.73;;
68250;SDS011;55066;51.560;4.642;2022-12-18T14:44:30;23.20;;;8.10;;
68250;SDS011;55066;51.560;4.642;2022-12-18T14:46:56;26.20;;;9.03;;
68250;SDS011;55066;51.560;4.642;2022-12-18T14:49:26;37.47;;;12.73;;
68250;SDS011;55066;51.560;4.642;2022-12-18T14:51:55;32.23;;;12.27;;
68250;SDS011;55066;51.560;4.642;2022-12-18T14:54:45;30.02;;;11.05;;
68250;SDS011;55066;51.560;4.642;2022-12-18T14:57:22;25.92;;;9.75;;
68250;SDS011;55066;51.560;4.642;2022-12-18T14:59:50;19.02;;;7.50;;
68250;SDS011;55066;51.560;4.642;2022-12-18T15:02:25;27.08;;;8.15;;
68250;SDS011;55066;51.560;4.642;2022-12-18T15:05:02;25.67;;;8.93;;
68250;SDS011;55066;51.560;4.642;2022-12-18T15:07:40;33.50;;;12.07;;
68250;SDS011;55066;51.560;4.642;2022-12-18T15:10:14;32.90;;;12.07;;
68250;SDS011;55066;51.560;4.642;2022-12-18T15:12:42;36.08;;;12.40;;
68250;SDS011;55066;51.560;4.642;2022-12-18T15:21:18;26.75;;;9.40;;
68250;SDS011;55066;51.560;4.642;2022-12-18T15:23:36;28.48;;;10.13;;
68250;SDS011;55066;51.560;4.642;2022-12-18T15:26:11;23.17;;;8.63;;
68250;SDS011;55066;51.560;4.642;2022-12-18T15:28:49;25.85;;;9.05;;
68250;SDS011;55066;51.560;4.642;2022-12-18T15:33:45;19.40;;;7.10;;
68250;SDS011;55066;51.560;4.642;2022-12-18T15:36:28;28.10;;;10.07;;
68250;SDS011;55066;51.560;4.642;2022-12-18T15:39:01;25.77;;;8.88;;
68250;SDS011;55066;51.560;4.642;2022-12-18T15:41:27;21.77;;;9.05;;
68250;SDS011;55066;51.560;4.642;2022-12-18T15:43:52;37.40;;;14.17;;
68250;SDS011;55066;51.560;4.642;2022-12-18T15:46:19;38.27;;;12.93;;
68250;SDS011;55066;51.560;4.642;2022-12-18T15:48:57;40.13;;;12.60;;
68250;SDS011;55066;51.560;4.642;2022-12-18T15:51:27;35.08;;;12.70;;
68250;SDS011;55066;51.560;4.642;2022-12-18T15:53:58;29.85;;;11.75;;
68250;SDS011;55066;51.560;4.642;2022-12-18T15:56:25;31.50;;;11.10;;
68250;SDS011;55066;51.560;4.642;2022-12-18T15:59:11;30.73;;;10.40;;
68250;SDS011;55066;51.560;4.642;2022-12-18T16:01:37;21.42;;;7.35;;
68250;SDS011;55066;51.560;4.642;2022-12-18T16:04:03;24.02;;;7.20;;
68250;SDS011;55066;51.560;4.642;2022-12-18T16:06:28;18.10;;;7.47;;
68250;SDS011;55066;51.560;4.642;2022-12-18T16:08:54;23.27;;;10.17;;
68250;SDS011;55066;51.560;4.642;2022-12-18T16:11:20;30.50;;;11.67;;
68250;SDS011;55066;51.560;4.642;2022-12-18T16:16:47;25.85;;;9.63;;
68250;SDS011;55066;51.560;4.642;2022-12-18T16:19:13;35.05;;;11.27;;
68250;SDS011;55066;51.560;4.642;2022-12-18T16:21:39;33.63;;;11.77;;
68250;SDS011;55066;51.560;4.642;2022-12-18T16:24:04;34.20;;;11.57;;
68250;SDS011;55066;51.560;4.642;2022-12-18T16:26:30;33.95;;;12.77;;
68250;SDS011;55066;51.560;4.642;2022-12-18T16:28:55;30.30;;;11.63;;
68250;SDS011;55066;51.560;4.642;2022-12-18T16:31:21;35.77;;;12.23;;
68250;SDS011;55066;51.560;4.642;2022-12-18T16:33:46;30.47;;;10.23;;
68250;SDS011;55066;51.560;4.642;2022-12-18T16:36:12;30.03;;;11.67;;